sensor_id;sensor_type;location;lat;lon;timestamp;pressure;altitude;pressure_sealevel;temperature;humidity
57572;BME280;44459;43.522;24.470;2023-06-19T00:01:41;100078.44;;;18.94;100.00
57572;BME280;44459;43.522;24.470;2023-06-19T00:04:06;100076.59;;;18.96;100.00
57572;BME280;44459;43.522;24.470;2023-06-19T00:06:32;100071.19;;;18.97;100.00
57572;BME280;44459;43.522;24.470;2023-06-19T00:08:57;100086.25;;;19.01;100.00
57572;BME280;44459;43.522;24.470;2023-06-19T00:11:22;100078.31;;;18.98;100.00
57572;BME280;44459;43.522;24.470;2023-06-19T00:13:48;100078.31;;;18.98;100.00
57572;BME280;44459;43.522;24.470;2023-06-19T00:16:13;100077.47;;;18.96;100.00
57572;BME280;44459;43.522;24.470;2023-06-19T00:18:39;100066.72;;;18.98;100.00
57572;BME280;44459;43.522;24.470;2023-06-19T00:21:08;100075.69;;;18.95;100.00
57572;BME280;44459;43.522;24.470;2023-06-19T00:23:33;100066.88;;;18.93;100.00
57572;BME280;44459;43.522;24.470;2023-06-19T00:25:59;100081.00;;;18.98;100.00
57572;BME280;44459;43.522;24.470;2023-06-19T00:28:27;100085.56;;;18.95;100.00
57572;BME280;44459;43.522;24.470;2023-06-19T00:30:53;100082.22;;;18.87;100.00
57572;BME280;44459;43.522;24.470;2023-06-19T00:33:18;100075.41;;;18.77;100.00
57572;BME280;44459;43.522;24.470;2023-06-19T00:35:44;100077.19;;;18.76;100.00
57572;BME280;44459;43.522;24.470;2023-06-19T00:38:09;100077.28;;;18.73;100.00
57572;BME280;44459;43.522;24.470;2023-06-19T00:40:35;100077.41;;;18.69;100.00
57572;BME280;44459;43.522;24.470;2023-06-19T00:43:01;100093.53;;;18.67;100.00
57572;BME280;44459;43.522;24.470;2023-06-19T00:45:27;100080.41;;;18.58;100.00
57572;BME280;44459;43.522;24.470;2023-06-19T00:47:54;100093.75;;;18.59;100.00
57572;BME280;44459;43.522;24.470;2023-06-19T00:50:23;100087.59;;;18.56;100.00
57572;BME280;44459;43.522;24.470;2023-06-19T00:52:49;100085.06;;;18.50;100.00
57572;BME280;44459;43.522;24.470;2023-06-19T00:55:15;100093.94;;;18.52;100.00
57572;BME280;44459;43.522;24.470;2023-06-19T00:57:41;100094.88;;;18.49;100.00
57572;BME280;44459;43.522;24.470;2023-06-19T01:00:08;100092.38;;;18.43;100.00
57572;BME280;44459;43.522;24.470;2023-06-19T01:02:34;100081.06;;;18.34;100.00
57572;BME280;44459;43.522;24.470;2023-06-19T01:05:00;100085.59;;;18.32;100.00
57572;BME280;44459;43.522;24.470;2023-06-19T01:07:31;100077.59;;;18.30;100.00
57572;BME280;44459;43.522;24.470;2023-06-19T01:10:02;100086.50;;;18.31;100.00
57572;BME280;44459;43.522;24.470;2023-06-19T01:12:37;100086.50;;;18.31;100.00
57572;BME280;44459;43.522;24.470;2023-06-19T01:15:04;100083.94;;;18.26;100.00
57572;BME280;44459;43.522;24.470;2023-06-19T01:17:32;100083.03;;;18.27;100.00
57572;BME280;44459;43.522;24.470;2023-06-19T01:19:58;100082.31;;;18.21;100.00
57572;BME280;44459;43.522;24.470;2023-06-19T01:22:31;100077.16;;;18.15;100.00
57572;BME280;44459;43.522;24.470;2023-06-19T01:24:56;100092.31;;;18.14;100.00
57572;BME280;44459;43.522;24.470;2023-06-19T01:27:26;100091.59;;;18.07;100.00
57572;BME280;44459;43.522;24.470;2023-06-19T01:29:56;100088.94;;;18.06;100.00
57572;BME280;44459;43.522;24.470;2023-06-19T01:32:56;100097.06;;;18.01;100.00
57572;BME280;44459;43.522;24.470;2023-06-19T01:35:30;100083.06;;;17.93;100.00
57572;BME280;44459;43.522;24.470;2023-06-19T01:37:57;100095.56;;;17.91;100.00
57572;BME280;44459;43.522;24.470;2023-06-19T01:40:25;100090.47;;;17.82;100.00
57572;BME280;44459;43.522;24.470;2023-06-19T01:42:52;100083.47;;;17.78;100.00
57572;BME280;44459;43.522;24.470;2023-06-19T01:45:19;100089.69;;;17.77;100.00
57572;BME280;44459;43.522;24.470;2023-06-19T01:47:44;100082.72;;;17.73;100.00
57572;BME280;44459;43.522;24.470;2023-06-19T01:50:11;100088.06;;;17.73;100.00
57572;BME280;44459;43.522;24.470;2023-06-19T01:52:38;100092.59;;;17.70;100.00
57572;BME280;44459;43.522;24.470;2023-06-19T01:55:04;100072.31;;;17.63;100.00
57572;BME280;44459;43.522;24.470;2023-06-19T01:57:30;100082.94;;;17.64;100.00
57572;BME280;44459;43.522;24.470;2023-06-19T01:59:56;100076.78;;;17.60;100.00
57572;BME280;44459;43.522;24.470;2023-06-19T02:02:21;100079.53;;;17.57;100.00
57572;BME280;44459;43.522;24.470;2023-06-19T02:04:47;100085.75;;;17.58;100.00
57572;BME280;44459;43.522;24.470;2023-06-19T02:07:12;100072.63;;;17.49;100.00
57572;BME280;44459;43.522;24.470;2023-06-19T02:09:38;100088.47;;;17.55;100.00
57572;BME280;44459;43.522;24.470;2023-06-19T02:12:03;100087.59;;;17.53;100.00
57572;BME280;44459;43.522;24.470;2023-06-19T02:14:29;100097.44;;;17.52;100.00
57572;BME280;44459;43.522;24.470;2023-06-19T02:16:54;100102.81;;;17.49;100.00
57572;BME280;44459;43.522;24.470;2023-06-19T02:19:20;100095.03;;;17.42;100.00
57572;BME280;44459;43.522;24.470;2023-06-19T02:21:45;100093.34;;;17.38;100.00
57572;BME280;44459;43.522;24.470;2023-06-19T02:24:11;100102.16;;;17.40;100.00
57572;BME280;44459;43.522;24.470;2023-06-19T02:26:36;100100.63;;;17.30;100.00
57572;BME280;44459;43.522;24.470;2023-06-19T02:29:01;100100.53;;;17.34;100.00
57572;BME280;44459;43.522;24.470;2023-06-19T02:31:27;100097.13;;;17.28;100.00
57572;BME280;44459;43.522;24.470;2023-06-19T02:33:52;100112.16;;;17.32;100.00
57572;BME280;44459;43.522;24.470;2023-06-19T02:36:18;100107.75;;;17.29;100.00
57572;BME280;44459;43.522;24.470;2023-06-19T02:38:47;100099.94;;;17.22;100.00
57572;BME280;44459;43.522;24.470;2023-06-19T02:41:12;100112.34;;;17.24;100.00
57572;BME280;44459;43.522;24.470;2023-06-19T02:43:40;100113.25;;;17.23;100.00
57572;BME280;44459;43.522;24.470;2023-06-19T02:46:06;100106.44;;;17.10;100.00
57572;BME280;44459;43.522;24.470;2023-06-19T02:48:31;100110.97;;;17.05;100.00
57572;BME280;44459;43.522;24.470;2023-06-19T02:50:57;100108.44;;;17.00;100.00
57572;BME280;44459;43.522;24.470;2023-06-19T02:53:22;100114.59;;;17.04;100.00
57572;BME280;44459;43.522;24.470;2023-06-19T02:55:48;100096.00;;;16.99;100.00
57572;BME280;44459;43.522;24.470;2023-06-19T02:58:13;100103.09;;;17.00;100.00
57572;BME280;44459;43.522;24.470;2023-06-19T03:00:39;100119.91;;;17.04;100.00
57572;BME280;44459;43.522;24.470;2023-06-19T03:03:05;100108.47;;;16.99;100.00
57572;BME280;44459;43.522;24.470;2023-06-19T03:05:30;100108.44;;;17.00;100.00
57572;BME280;44459;43.522;24.470;2023-06-19T03:07:56;100111.94;;;17.02;100.00
57572;BME280;44459;43.522;24.470;2023-06-19T03:10:21;100104.00;;;16.99;100.00
57572;BME280;44459;43.522;24.470;2023-06-19T03:12:47;100116.28;;;17.06;100.00
57572;BME280;44459;43.522;24.470;2023-06-19T03:15:12;100113.78;;;17.00;100.00
57572;BME280;44459;43.522;24.470;2023-06-19T03:17:38;100108.38;;;17.02;100.00
57572;BME280;44459;43.522;24.470;2023-06-19T03:20:03;100112.00;;;16.99;100.00
57572;BME280;44459;43.522;24.470;2023-06-19T03:22:31;100124.31;;;17.06;100.00
57572;BME280;44459;43.522;24.470;2023-06-19T03:24:57;100113.63;;;17.06;100.00
57572;BME280;44459;43.522;24.470;2023-06-19T03:27:22;100114.59;;;17.04;100.00
57572;BME280;44459;43.522;24.470;2023-06-19T03:29:50;100110.09;;;17.04;100.00
57572;BME280;44459;43.522;24.470;2023-06-19T03:32:15;100109.28;;;17.02;100.00
57572;BME280;44459;43.522;24.470;2023-06-19T03:34:41;100104.66;;;17.10;100.00
57572;BME280;44459;43.522;24.470;2023-06-19T03:37:07;100105.56;;;17.09;100.00
57572;BME280;44459;43.522;24.470;2023-06-19T03:39:32;100103.69;;;17.13;100.00
57572;BME280;44459;43.522;24.470;2023-06-19T03:41:57;100116.00;;;17.19;100.00
57572;BME280;44459;43.522;24.470;2023-06-19T03:44:23;100121.34;;;17.19;100.00
57572;BME280;44459;43.522;24.470;2023-06-19T03:46:48;100118.59;;;17.22;100.00
57572;BME280;44459;43.522;24.470;2023-06-19T03:49:15;100110.47;;;17.28;100.00
57572;BME280;44459;43.522;24.470;2023-06-19T03:51:41;100115.66;;;17.34;100.00
57572;BME280;44459;43.522;24.470;2023-06-19T03:54:06;100115.56;;;17.38;100.00
57572;BME280;44459;43.522;24.470;2023-06-19T03:56:31;100116.31;;;17.45;100.00
57572;BME280;44459;43.522;24.470;2023-06-19T03:58:57;100107.25;;;17.50;100.00
57572;BME280;44459;43.522;24.470;2023-06-19T04:01:22;100099.13;;;17.56;100.00
57572;BME280;44459;43.522;24.470;2023-06-19T04:03:48;100113.00;;;17.72;100.00
57572;BME280;44459;43.522;24.470;2023-06-19T04:06:13;100103.00;;;17.80;100.00
57572;BME280;44459;43.522;24.470;2023-06-19T04:08:39;100109.69;;;17.96;100.00
57572;BME280;44459;43.522;24.470;2023-06-19T04:11:04;100107.63;;;18.07;100.00
57572;BME280;44459;43.522;24.470;2023-06-19T04:13:29;100110.72;;;18.25;100.00
57572;BME280;44459;43.522;24.470;2023-06-19T04:15:55;100104.00;;;18.42;100.00
57572;BME280;44459;43.522;24.470;2023-06-19T04:18:20;100097.56;;;18.49;100.00
57572;BME280;44459;43.522;24.470;2023-06-19T04:20:46;100106.22;;;18.59;100.00
57572;BME280;44459;43.522;24.470;2023-06-19T04:23:11;100099.97;;;18.60;100.00
57572;BME280;44459;43.522;24.470;2023-06-19T04:25:37;100112.16;;;18.70;100.00
57572;BME280;44459;43.522;24.470;2023-06-19T04:28:03;100110.41;;;18.68;100.00
57572;BME280;44459;43.522;24.470;2023-06-19T04:30:29;100112.00;;;18.75;100.00
57572;BME280;44459;43.522;24.470;2023-06-19T04:32:59;100121.56;;;18.83;100.00
57572;BME280;44459;43.522;24.470;2023-06-19T04:35:24;100117.50;;;18.99;100.00
57572;BME280;44459;43.522;24.470;2023-06-19T04:37:50;100111.03;;;19.06;100.00
57572;BME280;44459;43.522;24.470;2023-06-19T04:40:15;100103.75;;;19.12;100.00
57572;BME280;44459;43.522;24.470;2023-06-19T04:42:41;100116.41;;;19.34;100.00
57572;BME280;44459;43.522;24.470;2023-06-19T04:45:07;100123.41;;;19.40;100.00
57572;BME280;44459;43.522;24.470;2023-06-19T04:47:33;100126.56;;;19.54;100.00
57572;BME280;44459;43.522;24.470;2023-06-19T04:49:59;100126.34;;;19.60;100.00
57572;BME280;44459;43.522;24.470;2023-06-19T04:52:25;100120.75;;;19.68;100.00
57572;BME280;44459;43.522;24.470;2023-06-19T04:54:51;100131.00;;;19.81;100.00
57572;BME280;44459;43.522;24.470;2023-06-19T04:57:16;100127.97;;;19.92;99.43
57572;BME280;44459;43.522;24.470;2023-06-19T04:59:45;100130.34;;;19.99;94.16
57572;BME280;44459;43.522;24.470;2023-06-19T05:02:10;100128.16;;;20.12;94.83
57572;BME280;44459;43.522;24.470;2023-06-19T05:04:36;100124.13;;;20.25;94.40
57572;BME280;44459;43.522;24.470;2023-06-19T05:07:01;100133.50;;;20.38;92.15
57572;BME280;44459;43.522;24.470;2023-06-19T05:09:28;100133.19;;;20.47;94.43
57572;BME280;44459;43.522;24.470;2023-06-19T05:11:53;100127.09;;;20.67;91.67
57572;BME280;44459;43.522;24.470;2023-06-19T05:14:19;100134.91;;;20.73;89.94
57572;BME280;44459;43.522;24.470;2023-06-19T05:16:44;100135.28;;;20.87;91.35
57572;BME280;44459;43.522;24.470;2023-06-19T05:19:10;100127.69;;;20.98;91.07
57572;BME280;44459;43.522;24.470;2023-06-19T05:21:35;100140.91;;;20.80;87.87
57572;BME280;44459;43.522;24.470;2023-06-19T05:24:01;100146.84;;;20.89;88.86
57572;BME280;44459;43.522;24.470;2023-06-19T05:26:27;100139.59;;;20.91;87.72
57572;BME280;44459;43.522;24.470;2023-06-19T05:28:52;100149.41;;;20.92;89.17
57572;BME280;44459;43.522;24.470;2023-06-19T05:31:18;100155.59;;;20.94;87.97
57572;BME280;44459;43.522;24.470;2023-06-19T05:33:44;100157.06;;;21.03;91.54
57572;BME280;44459;43.522;24.470;2023-06-19T05:36:10;100151.38;;;20.87;89.07
57572;BME280;44459;43.522;24.470;2023-06-19T05:38:36;100146.25;;;21.04;90.63
57572;BME280;44459;43.522;24.470;2023-06-19T05:41:04;100145.28;;;21.30;88.39
57572;BME280;44459;43.522;24.470;2023-06-19T05:43:29;100153.19;;;21.56;86.00
57572;BME280;44459;43.522;24.470;2023-06-19T05:45:56;100138.66;;;21.62;85.76
57572;BME280;44459;43.522;24.470;2023-06-19T05:48:23;100150.16;;;21.66;85.08
57572;BME280;44459;43.522;24.470;2023-06-19T05:50:50;100159.88;;;21.68;84.34
57572;BME280;44459;43.522;24.470;2023-06-19T05:53:15;100162.56;;;21.68;86.55
57572;BME280;44459;43.522;24.470;2023-06-19T05:55:41;100163.19;;;21.75;84.63
57572;BME280;44459;43.522;24.470;2023-06-19T05:58:06;100163.50;;;21.89;88.72
57572;BME280;44459;43.522;24.470;2023-06-19T06:00:32;100160.28;;;22.02;84.62
57572;BME280;44459;43.522;24.470;2023-06-19T06:02:57;100165.13;;;22.15;88.00
57572;BME280;44459;43.522;24.470;2023-06-19T06:05:26;100164.34;;;22.33;84.25
57572;BME280;44459;43.522;24.470;2023-06-19T06:07:53;100168.00;;;22.32;83.25
57572;BME280;44459;43.522;24.470;2023-06-19T06:10:22;100167.59;;;22.41;83.48
57572;BME280;44459;43.522;24.470;2023-06-19T06:12:48;100170.19;;;22.42;85.16
57572;BME280;44459;43.522;24.470;2023-06-19T06:15:14;100165.31;;;22.52;82.45
57572;BME280;44459;43.522;24.470;2023-06-19T06:17:40;100166.38;;;22.48;85.00
57572;BME280;44459;43.522;24.470;2023-06-19T06:20:06;100159.31;;;22.66;88.70
57572;BME280;44459;43.522;24.470;2023-06-19T06:22:36;100163.28;;;22.97;84.86
57572;BME280;44459;43.522;24.470;2023-06-19T06:25:02;100155.00;;;23.21;85.64
57572;BME280;44459;43.522;24.470;2023-06-19T06:27:28;100160.41;;;23.39;81.15
57572;BME280;44459;43.522;24.470;2023-06-19T06:29:53;100157.94;;;23.53;82.19
57572;BME280;44459;43.522;24.470;2023-06-19T06:32:18;100175.31;;;23.67;80.02
57572;BME280;44459;43.522;24.470;2023-06-19T06:34:44;100159.19;;;23.65;81.38
57572;BME280;44459;43.522;24.470;2023-06-19T06:37:09;100171.84;;;23.82;79.03
57572;BME280;44459;43.522;24.470;2023-06-19T06:39:35;100164.78;;;23.79;78.80
57572;BME280;44459;43.522;24.470;2023-06-19T06:42:00;100171.72;;;23.66;79.12
57572;BME280;44459;43.522;24.470;2023-06-19T06:44:26;100164.72;;;23.62;82.58
57572;BME280;44459;43.522;24.470;2023-06-19T06:46:51;100162.44;;;23.72;81.38
57572;BME280;44459;43.522;24.470;2023-06-19T06:49:17;100160.91;;;23.85;81.41
57572;BME280;44459;43.522;24.470;2023-06-19T06:51:43;100151.66;;;23.90;78.53
57572;BME280;44459;43.522;24.470;2023-06-19T06:54:09;100167.03;;;24.05;78.48
57572;BME280;44459;43.522;24.470;2023-06-19T06:56:35;100160.38;;;23.95;82.03
57572;BME280;44459;43.522;24.470;2023-06-19T06:59:00;100163.00;;;23.97;79.96
57572;BME280;44459;43.522;24.470;2023-06-19T07:01:25;100160.09;;;24.01;82.13
57572;BME280;44459;43.522;24.470;2023-06-19T07:03:51;100171.34;;;24.10;77.88
57572;BME280;44459;43.522;24.470;2023-06-19T07:06:17;100169.09;;;24.19;82.59
57572;BME280;44459;43.522;24.470;2023-06-19T07:08:42;100167.91;;;24.25;78.71
57572;BME280;44459;43.522;24.470;2023-06-19T07:11:08;100170.84;;;24.37;77.92
57572;BME280;44459;43.522;24.470;2023-06-19T07:13:33;100168.56;;;24.47;78.34
57572;BME280;44459;43.522;24.470;2023-06-19T07:15:59;100177.34;;;24.50;77.75
57572;BME280;44459;43.522;24.470;2023-06-19T07:18:27;100174.19;;;24.42;75.46
57572;BME280;44459;43.522;24.470;2023-06-19T07:20:52;100172.38;;;24.26;77.42
57572;BME280;44459;43.522;24.470;2023-06-19T07:23:18;100173.63;;;24.36;78.01
57572;BME280;44459;43.522;24.470;2023-06-19T07:25:45;100182.28;;;24.42;77.85
57572;BME280;44459;43.522;24.470;2023-06-19T07:28:11;100168.28;;;24.17;75.98
57572;BME280;44459;43.522;24.470;2023-06-19T07:30:36;100177.09;;;24.21;77.52
57572;BME280;44459;43.522;24.470;2023-06-19T07:33:02;100179.75;;;24.03;79.32
57572;BME280;44459;43.522;24.470;2023-06-19T07:35:27;100175.00;;;24.09;76.19
57572;BME280;44459;43.522;24.470;2023-06-19T07:37:53;100177.03;;;24.03;77.23
57572;BME280;44459;43.522;24.470;2023-06-19T07:40:18;100178.72;;;24.06;75.61
57572;BME280;44459;43.522;24.470;2023-06-19T07:42:44;100178.31;;;23.96;75.09
57572;BME280;44459;43.522;24.470;2023-06-19T07:45:09;100181.41;;;24.06;76.56
57572;BME280;44459;43.522;24.470;2023-06-19T07:47:35;100184.75;;;24.11;74.88
57572;BME280;44459;43.522;24.470;2023-06-19T07:50:02;100178.13;;;24.18;77.44
57572;BME280;44459;43.522;24.470;2023-06-19T07:52:27;100174.03;;;24.10;76.19
57572;BME280;44459;43.522;24.470;2023-06-19T07:54:53;100182.91;;;24.30;77.19
57572;BME280;44459;43.522;24.470;2023-06-19T07:57:19;100186.47;;;24.48;75.58
57572;BME280;44459;43.522;24.470;2023-06-19T07:59:46;100185.75;;;24.62;73.83
57572;BME280;44459;43.522;24.470;2023-06-19T08:02:11;100189.66;;;24.56;73.40
57572;BME280;44459;43.522;24.470;2023-06-19T08:04:37;100175.47;;;24.35;74.75
57572;BME280;44459;43.522;24.470;2023-06-19T08:07:02;100180.38;;;24.62;75.55
57572;BME280;44459;43.522;24.470;2023-06-19T08:09:28;100187.50;;;24.80;74.40
57572;BME280;44459;43.522;24.470;2023-06-19T08:11:53;100183.16;;;24.94;76.27
57572;BME280;44459;43.522;24.470;2023-06-19T08:14:18;100188.47;;;24.96;73.67
57572;BME280;44459;43.522;24.470;2023-06-19T08:16:44;100185.00;;;25.10;74.76
57572;BME280;44459;43.522;24.470;2023-06-19T08:19:10;100178.34;;;24.99;73.09
57572;BME280;44459;43.522;24.470;2023-06-19T08:21:35;100184.88;;;25.13;71.76
57572;BME280;44459;43.522;24.470;2023-06-19T08:24:01;100189.06;;;25.18;72.17
57572;BME280;44459;43.522;24.470;2023-06-19T08:26:27;100192.22;;;25.42;70.54
57572;BME280;44459;43.522;24.470;2023-06-19T08:28:52;100189.28;;;25.46;71.92
57572;BME280;44459;43.522;24.470;2023-06-19T08:31:17;100191.47;;;25.40;69.19
57572;BME280;44459;43.522;24.470;2023-06-19T08:33:43;100174.97;;;25.29;71.79
57572;BME280;44459;43.522;24.470;2023-06-19T08:36:08;100188.94;;;25.37;70.27
57572;BME280;44459;43.522;24.470;2023-06-19T08:38:34;100190.06;;;25.48;68.87
57572;BME280;44459;43.522;24.470;2023-06-19T08:40:59;100190.91;;;25.66;71.23
57572;BME280;44459;43.522;24.470;2023-06-19T08:43:25;100189.41;;;25.76;67.68
57572;BME280;44459;43.522;24.470;2023-06-19T08:46:13;100194.91;;;26.06;68.83
57572;BME280;44459;43.522;24.470;2023-06-19T08:48:39;100188.72;;;26.20;69.04
57572;BME280;44459;43.522;24.470;2023-06-19T08:51:05;100186.88;;;26.20;65.14
57572;BME280;44459;43.522;24.470;2023-06-19T08:53:35;100192.28;;;26.04;65.57
57572;BME280;44459;43.522;24.470;2023-06-19T08:56:04;100198.56;;;26.05;66.14
57572;BME280;44459;43.522;24.470;2023-06-19T08:58:30;100186.69;;;26.08;63.44
57572;BME280;44459;43.522;24.470;2023-06-19T09:00:58;100192.81;;;25.95;65.60
57572;BME280;44459;43.522;24.470;2023-06-19T09:03:24;100195.09;;;25.87;62.61
57572;BME280;44459;43.522;24.470;2023-06-19T09:05:50;100198.41;;;25.92;63.66
57572;BME280;44459;43.522;24.470;2023-06-19T09:08:16;100192.38;;;25.87;61.80
57572;BME280;44459;43.522;24.470;2023-06-19T09:10:42;100193.78;;;25.94;61.06
57572;BME280;44459;43.522;24.470;2023-06-19T09:13:08;100191.59;;;25.85;60.98
57572;BME280;44459;43.522;24.470;2023-06-19T09:15:35;100203.91;;;26.07;60.05
57572;BME280;44459;43.522;24.470;2023-06-19T09:18:08;100200.94;;;25.95;59.91
57572;BME280;44459;43.522;24.470;2023-06-19T09:20:37;100195.50;;;26.11;59.26
57572;BME280;44459;43.522;24.470;2023-06-19T09:23:04;100205.13;;;26.01;59.21
57572;BME280;44459;43.522;24.470;2023-06-19T09:25:30;100193.78;;;25.94;58.09
57572;BME280;44459;43.522;24.470;2023-06-19T09:27:56;100207.75;;;26.18;60.46
57572;BME280;44459;43.522;24.470;2023-06-19T09:30:22;100210.25;;;26.21;58.58
57572;BME280;44459;43.522;24.470;2023-06-19T09:32:48;100213.22;;;26.32;56.29
57572;BME280;44459;43.522;24.470;2023-06-19T09:35:14;100200.69;;;26.45;56.69
57572;BME280;44459;43.522;24.470;2023-06-19T09:37:40;100209.09;;;26.71;60.08
57572;BME280;44459;43.522;24.470;2023-06-19T09:40:07;100205.31;;;26.73;60.60
57572;BME280;44459;43.522;24.470;2023-06-19T09:42:41;100192.16;;;26.67;57.51
57572;BME280;44459;43.522;24.470;2023-06-19T09:45:12;100192.94;;;26.99;59.40
57572;BME280;44459;43.522;24.470;2023-06-19T09:47:45;100184.31;;;27.07;61.59
57572;BME280;44459;43.522;24.470;2023-06-19T09:50:13;100194.78;;;27.13;58.99
57572;BME280;44459;43.522;24.470;2023-06-19T09:52:40;100195.75;;;27.26;61.01
57572;BME280;44459;43.522;24.470;2023-06-19T09:55:06;100186.41;;;26.87;60.81
57572;BME280;44459;43.522;24.470;2023-06-19T09:57:34;100206.09;;;27.05;61.34
57572;BME280;44459;43.522;24.470;2023-06-19T10:00:03;100202.63;;;27.17;61.22
57572;BME280;44459;43.522;24.470;2023-06-19T10:02:39;100192.06;;;26.98;60.69
57572;BME280;44459;43.522;24.470;2023-06-19T10:05:05;100197.50;;;27.13;59.59
57572;BME280;44459;43.522;24.470;2023-06-19T10:07:35;100203.19;;;27.08;59.62
57572;BME280;44459;43.522;24.470;2023-06-19T10:10:03;100201.53;;;27.06;57.11
57572;BME280;44459;43.522;24.470;2023-06-19T10:17:36;100187.31;;;27.30;60.22
57572;BME280;44459;43.522;24.470;2023-06-19T10:20:01;100191.41;;;27.23;61.33
57572;BME280;44459;43.522;24.470;2023-06-19T10:22:31;100180.56;;;27.23;60.45
57572;BME280;44459;43.522;24.470;2023-06-19T10:24:57;100174.66;;;27.31;60.00
57572;BME280;44459;43.522;24.470;2023-06-19T10:27:24;100182.38;;;27.37;60.11
57572;BME280;44459;43.522;24.470;2023-06-19T10:29:54;100170.59;;;27.10;61.43
57572;BME280;44459;43.522;24.470;2023-06-19T10:32:20;100175.03;;;27.11;63.52
57572;BME280;44459;43.522;24.470;2023-06-19T10:34:47;100170.53;;;26.81;60.43
57572;BME280;44459;43.522;24.470;2023-06-19T10:37:16;100171.16;;;26.86;62.24
57572;BME280;44459;43.522;24.470;2023-06-19T10:39:42;100158.59;;;27.14;62.77
57572;BME280;44459;43.522;24.470;2023-06-19T10:42:09;100154.72;;;27.18;61.46
57572;BME280;44459;43.522;24.470;2023-06-19T10:44:35;100158.00;;;27.51;59.46
57572;BME280;44459;43.522;24.470;2023-06-19T10:47:01;100160.13;;;27.46;56.17
57572;BME280;44459;43.522;24.470;2023-06-19T10:49:27;100136.66;;;27.73;59.03
57572;BME280;44459;43.522;24.470;2023-06-19T10:51:53;100159.91;;;28.04;59.36
57572;BME280;44459;43.522;24.470;2023-06-19T10:54:24;100162.25;;;28.23;56.75
57572;BME280;44459;43.522;24.470;2023-06-19T10:56:50;100146.25;;;27.91;57.23
57572;BME280;44459;43.522;24.470;2023-06-19T10:59:16;100158.16;;;28.03;54.76
57572;BME280;44459;43.522;24.470;2023-06-19T11:01:45;100136.31;;;28.05;52.54
57572;BME280;44459;43.522;24.470;2023-06-19T11:04:12;100145.97;;;27.96;52.53
57572;BME280;44459;43.522;24.470;2023-06-19T11:06:39;100136.16;;;28.08;55.25
57572;BME280;44459;43.522;24.470;2023-06-19T11:09:06;100150.97;;;27.75;51.78
57572;BME280;44459;43.522;24.470;2023-06-19T11:11:41;100138.44;;;27.87;50.81
57572;BME280;44459;43.522;24.470;2023-06-19T11:14:08;100140.72;;;28.07;51.72
57572;BME280;44459;43.522;24.470;2023-06-19T11:16:35;100148.91;;;28.20;50.97
57572;BME280;44459;43.522;24.470;2023-06-19T11:19:02;100126.09;;;28.22;50.80
57572;BME280;44459;43.522;24.470;2023-06-19T11:21:32;100144.19;;;28.09;50.98
57572;BME280;44459;43.522;24.470;2023-06-19T11:24:02;100138.25;;;28.17;49.23
57572;BME280;44459;43.522;24.470;2023-06-19T11:26:27;100143.50;;;27.79;50.58
57572;BME280;44459;43.522;24.470;2023-06-19T11:28:53;100137.72;;;27.97;51.62
57572;BME280;44459;43.522;24.470;2023-06-19T11:31:25;100130.09;;;28.17;48.78
57572;BME280;44459;43.522;24.470;2023-06-19T11:33:58;100131.25;;;28.52;48.74
57572;BME280;44459;43.522;24.470;2023-06-19T11:36:24;100133.84;;;28.54;51.27
57572;BME280;44459;43.522;24.470;2023-06-19T11:38:51;100148.28;;;28.93;48.33
57572;BME280;44459;43.522;24.470;2023-06-19T11:41:28;100133.16;;;28.89;46.78
57572;BME280;44459;43.522;24.470;2023-06-19T11:44:02;100136.63;;;28.79;46.88
57572;BME280;44459;43.522;24.470;2023-06-19T11:46:29;100134.38;;;28.73;47.60
57572;BME280;44459;43.522;24.470;2023-06-19T11:49:06;100128.38;;;28.93;48.62
57572;BME280;44459;43.522;24.470;2023-06-19T11:51:32;100117.94;;;28.99;47.89
57572;BME280;44459;43.522;24.470;2023-06-19T11:53:57;100125.44;;;28.96;45.96
57572;BME280;44459;43.522;24.470;2023-06-19T11:56:22;100109.91;;;28.85;47.18
57572;BME280;44459;43.522;24.470;2023-06-19T11:58:48;100121.31;;;28.78;47.08
57572;BME280;44459;43.522;24.470;2023-06-19T12:01:13;100113.94;;;28.80;46.28
57572;BME280;44459;43.522;24.470;2023-06-19T12:03:39;100105.47;;;28.84;45.96
57572;BME280;44459;43.522;24.470;2023-06-19T12:06:05;100105.00;;;28.90;46.01
57572;BME280;44459;43.522;24.470;2023-06-19T12:08:32;100108.69;;;28.89;47.80
57572;BME280;44459;43.522;24.470;2023-06-19T12:10:58;100105.78;;;29.05;44.70
57572;BME280;44459;43.522;24.470;2023-06-19T12:13:24;100095.84;;;28.91;46.01
57572;BME280;44459;43.522;24.470;2023-06-19T12:15:49;100093.66;;;29.09;48.05
57572;BME280;44459;43.522;24.470;2023-06-19T12:18:14;100095.00;;;29.04;46.33
57572;BME280;44459;43.522;24.470;2023-06-19T12:20:40;100096.63;;;29.19;47.27
57572;BME280;44459;43.522;24.470;2023-06-19T12:23:05;100095.53;;;28.96;44.74
57572;BME280;44459;43.522;24.470;2023-06-19T12:25:31;100086.50;;;29.08;45.29
57572;BME280;44459;43.522;24.470;2023-06-19T12:27:56;100091.06;;;28.95;43.21
57572;BME280;44459;43.522;24.470;2023-06-19T12:30:22;100080.09;;;28.96;44.26
57572;BME280;44459;43.522;24.470;2023-06-19T12:32:48;100089.56;;;29.04;44.75
57572;BME280;44459;43.522;24.470;2023-06-19T12:35:15;100092.59;;;28.99;42.76
57572;BME280;44459;43.522;24.470;2023-06-19T12:37:40;100079.78;;;29.01;44.19